Time;durP1;ratioP1;P1;durP2;ratioP2;P2;SDS_P1;SDS_P2;PMS_P1;PMS_P2;Temp;Humidity;BMP_temperature;BMP_pressure;BME280_temperature;BME280_humidity;BME280_pressure;Samples;Min_cycle;Max_cycle;Signal;HPM_P1;HPM_P2
2022/07/23 00:01:21;;;;;;;14.65;4.25;;;;;;;;;;5069832;28;20118;-35
2022/07/23 00:03:47;;;;;;;15.77;4.60;;;;;;;;;;5072026;28;20055;-35
2022/07/23 00:06:12;;;;;;;13.80;4.32;;;;;;;;;;5071967;28;20091;-34
2022/07/23 00:08:37;;;;;;;21.42;4.90;;;;;;;;;;5071741;28;20132;-35
2022/07/23 00:11:03;;;;;;;8.05;3.72;;;;;;;;;;5070495;28;20051;-35
2022/07/23 00:13:28;;;;;;;16.08;3.97;;;;;;;;;;5070313;28;20020;-35
2022/07/23 00:15:54;;;;;;;13.20;4.00;;;;;;;;;;5070060;28;20112;-34
2022/07/23 00:18:19;;;;;;;19.45;4.38;;;;;;;;;;5070365;28;20107;-34
2022/07/23 00:20:45;;;;;;;17.40;4.70;;;;;;;;;;5070610;28;20474;-34
2022/07/23 00:23:10;;;;;;;26.67;4.82;;;;;;;;;;5071743;28;20028;-36
2022/07/23 00:25:35;;;;;;;14.68;3.70;;;;;;;;;;5070087;28;20027;-34
2022/07/23 00:28:01;;;;;;;12.55;4.43;;;;;;;;;;5070205;28;20473;-34
2022/07/23 00:30:29;;;;;;;13.15;3.90;;;;;;;;;;5071611;28;20016;-34
2022/07/23 00:32:58;;;;;;;12.98;4.25;;;;;;;;;;5070998;28;20016;-34
2022/07/23 00:35:24;;;;;;;15.13;3.58;;;;;;;;;;5071839;28;20070;-34
2022/07/23 00:37:50;;;;;;;9.02;3.35;;;;;;;;;;5070075;28;20024;-34
2022/07/23 00:40:15;;;;;;;12.60;4.05;;;;;;;;;;5070987;28;20360;-34
2022/07/23 00:42:40;;;;;;;12.70;3.70;;;;;;;;;;5069952;28;20115;-34
2022/07/23 00:45:06;;;;;;;15.50;4.00;;;;;;;;;;5070063;28;20455;-35
2022/07/23 00:47:31;;;;;;;11.52;4.70;;;;;;;;;;5071338;28;20020;-35
2022/07/23 00:49:57;;;;;;;8.98;3.10;;;;;;;;;;5069933;28;20131;-34
2022/07/23 00:52:22;;;;;;;9.95;3.72;;;;;;;;;;5071243;28;20052;-34
2022/07/23 00:54:48;;;;;;;11.50;3.90;;;;;;;;;;5070769;28;20527;-34
2022/07/23 00:57:13;;;;;;;7.60;4.20;;;;;;;;;;5071041;28;20440;-35
2022/07/23 00:59:39;;;;;;;11.15;4.18;;;;;;;;;;5070008;28;20016;-34
2022/07/23 01:02:04;;;;;;;16.13;3.72;;;;;;;;;;5071129;28;20055;-34
2022/07/23 01:04:29;;;;;;;11.27;3.88;;;;;;;;;;5069982;28;20012;-37
2022/07/23 01:06:55;;;;;;;15.02;4.50;;;;;;;;;;5070670;28;20091;-34
2022/07/23 01:09:20;;;;;;;10.13;4.40;;;;;;;;;;5069396;28;20175;-34
2022/07/23 01:11:46;;;;;;;10.93;4.63;;;;;;;;;;5071139;28;20487;-34
2022/07/23 01:14:15;;;;;;;18.95;4.45;;;;;;;;;;5071476;28;20020;-35
2022/07/23 01:16:40;;;;;;;;;;;;;;;;;;5071672;28;20047;-34
2022/07/23 01:19:06;;;;;;;23.30;5.07;;;;;;;;;;5071173;28;20402;-34
2022/07/23 01:21:32;;;;;;;18.52;4.85;;;;;;;;;;5070954;28;20108;-34
2022/07/23 01:23:57;;;;;;;11.65;4.45;;;;;;;;;;5070614;28;20463;-35
2022/07/23 01:26:23;;;;;;;21.77;4.90;;;;;;;;;;5070498;28;20017;-34
2022/07/23 01:28:48;;;;;;;16.02;3.88;;;;;;;;;;5071135;28;20315;-36
2022/07/23 01:31:13;;;;;;;9.75;4.60;;;;;;;;;;5071025;28;20027;-35
2022/07/23 01:33:38;;;;;;;17.30;4.43;;;;;;;;;;5069683;28;20013;-34
2022/07/23 01:36:04;;;;;;;18.70;5.20;;;;;;;;;;5070761;28;20024;-34
2022/07/23 01:38:29;;;;;;;15.68;4.95;;;;;;;;;;5069409;28;20016;-34
2022/07/23 01:40:54;;;;;;;15.48;4.60;;;;;;;;;;5069608;28;20052;-35
2022/07/23 01:43:20;;;;;;;6.68;4.05;;;;;;;;;;5069296;28;20119;-34
2022/07/23 01:45:45;;;;;;;10.60;4.70;;;;;;;;;;5074686;28;20096;-34
2022/07/23 01:48:10;;;;;;;11.15;3.95;;;;;;;;;;5073064;28;20315;-34
2022/07/23 01:50:35;;;;;;;13.27;4.43;;;;;;;;;;5075075;28;20017;-34
2022/07/23 01:53:01;;;;;;;8.45;3.72;;;;;;;;;;5072743;28;20016;-34
2022/07/23 01:55:26;;;;;;;6.20;4.70;;;;;;;;;;5074217;28;20478;-36
2022/07/23 01:57:51;;;;;;;11.75;5.25;;;;;;;;;;5074468;28;20298;-34
2022/07/23 02:00:17;;;;;;;12.18;5.10;;;;;;;;;;5072624;28;20466;-35
2022/07/23 02:02:42;;;;;;;15.80;4.80;;;;;;;;;;5074235;28;20128;-36
2022/07/23 02:05:07;;;;;;;23.42;5.70;;;;;;;;;;5074154;28;20440;-35
2022/07/23 02:07:33;;;;;;;11.30;4.70;;;;;;;;;;5072338;28;20024;-34
2022/07/23 02:09:58;;;;;;;17.13;5.65;;;;;;;;;;5072601;28;20492;-34
2022/07/23 02:12:23;;;;;;;13.83;5.80;;;;;;;;;;5073830;28;20024;-34
2022/07/23 02:14:49;;;;;;;12.85;4.57;;;;;;;;;;5072950;28;20238;-34
2022/07/23 02:17:14;;;;;;;7.32;4.18;;;;;;;;;;5072583;28;20024;-34
2022/07/23 02:19:39;;;;;;;10.82;4.00;;;;;;;;;;5072358;28;20020;-35
2022/07/23 02:22:05;;;;;;;8.80;4.40;;;;;;;;;;5073925;28;20028;-34
2022/07/23 02:24:30;;;;;;;6.20;4.07;;;;;;;;;;5072239;28;20249;-34
2022/07/23 02:26:55;;;;;;;12.23;4.57;;;;;;;;;;5072620;28;20402;-33
2022/07/23 02:29:20;;;;;;;11.65;4.35;;;;;;;;;;5074177;28;20108;-35
2022/07/23 02:31:46;;;;;;;12.80;4.53;;;;;;;;;;5072796;28;20029;-34
2022/07/23 02:34:11;;;;;;;9.25;6.47;;;;;;;;;;5073688;28;20029;-34
2022/07/23 02:36:37;;;;;;;12.48;4.97;;;;;;;;;;5072451;28;20090;-34
2022/07/23 02:39:03;;;;;;;10.00;4.30;;;;;;;;;;5073394;28;20030;-34
2022/07/23 02:41:28;;;;;;;12.13;4.50;;;;;;;;;;5073199;28;20027;-35
2022/07/23 02:43:53;;;;;;;19.30;5.07;;;;;;;;;;5073532;28;20028;-34
2022/07/23 02:46:18;;;;;;;13.15;4.60;;;;;;;;;;5073493;28;20016;-33
2022/07/23 02:48:44;;;;;;;7.70;4.43;;;;;;;;;;5073630;28;20020;-36
2022/07/23 02:51:09;;;;;;;14.85;4.90;;;;;;;;;;5073199;28;20757;-34
2022/07/23 02:53:34;;;;;;;10.48;4.88;;;;;;;;;;5073280;28;20021;-34
2022/07/23 02:56:00;;;;;;;15.50;4.47;;;;;;;;;;5071527;28;20021;-33
2022/07/23 02:58:26;;;;;;;18.88;5.43;;;;;;;;;;5071775;28;20119;-35
2022/07/23 03:00:51;;;;;;;17.58;5.45;;;;;;;;;;5072590;28;20499;-35
2022/07/23 03:03:17;;;;;;;14.52;4.68;;;;;;;;;;5072801;28;20036;-34
2022/07/23 03:05:42;;;;;;;8.83;4.40;;;;;;;;;;5073364;28;20021;-33
2022/07/23 03:08:07;;;;;;;13.27;4.67;;;;;;;;;;5072974;28;20325;-37
2022/07/23 03:10:32;;;;;;;9.10;4.65;;;;;;;;;;5071164;28;20250;-36
2022/07/23 03:12:58;;;;;;;10.75;4.65;;;;;;;;;;5072868;28;20021;-33
2022/07/23 03:15:23;;;;;;;13.90;6.20;;;;;;;;;;5072974;28;20024;-33
2022/07/23 03:17:48;;;;;;;10.40;4.15;;;;;;;;;;5071590;28;20524;-34
2022/07/23 03:20:14;;;;;;;12.73;5.57;;;;;;;;;;5071648;28;20111;-34
2022/07/23 03:22:39;;;;;;;9.50;4.18;;;;;;;;;;5072904;28;20193;-37
2022/07/23 03:25:05;;;;;;;19.45;4.35;;;;;;;;;;5071498;28;20024;-34
2022/07/23 03:27:30;;;;;;;10.70;4.22;;;;;;;;;;5072280;28;20383;-36
2022/07/23 03:29:57;;;;;;;10.75;5.13;;;;;;;;;;5073013;28;20052;-34
2022/07/23 03:32:22;;;;;;;14.68;4.90;;;;;;;;;;5072904;28;20656;-34
2022/07/23 03:34:48;;;;;;;16.65;5.03;;;;;;;;;;5071676;28;20425;-35
2022/07/23 03:37:13;;;;;;;17.95;5.50;;;;;;;;;;5071130;28;20051;-35
2022/07/23 03:39:39;;;;;;;10.40;4.25;;;;;;;;;;5071563;28;20016;-35
2022/07/23 03:42:04;;;;;;;10.63;4.38;;;;;;;;;;5072357;28;20060;-34
2022/07/23 03:44:30;;;;;;;10.45;4.13;;;;;;;;;;5071666;28;20429;-35
2022/07/23 03:46:55;;;;;;;11.02;4.28;;;;;;;;;;5073286;28;20399;-34
2022/07/23 03:49:20;;;;;;;15.65;4.68;;;;;;;;;;5071053;28;20025;-35
2022/07/23 03:51:46;;;;;;;15.85;4.90;;;;;;;;;;5072423;28;20012;-34
2022/07/23 03:54:11;;;;;;;16.43;5.83;;;;;;;;;;5072685;28;20024;-35
2022/07/23 03:56:36;;;;;;;17.17;4.32;;;;;;;;;;5072422;28;20249;-35
2022/07/23 03:59:02;;;;;;;9.95;4.63;;;;;;;;;;5070641;28;20107;-34
2022/07/23 04:01:27;;;;;;;19.27;5.93;;;;;;;;;;5071704;28;20048;-35
2022/07/23 04:03:52;;;;;;;22.77;5.28;;;;;;;;;;5071361;28;20028;-35
2022/07/23 04:06:18;;;;;;;27.33;5.60;;;;;;;;;;5070490;28;20047;-37
2022/07/23 04:08:43;;;;;;;13.68;5.28;;;;;;;;;;5070538;28;20119;-35
2022/07/23 04:11:08;;;;;;;17.10;5.70;;;;;;;;;;5071623;28;20017;-35
2022/07/23 04:13:33;;;;;;;26.77;6.10;;;;;;;;;;5070475;28;20301;-35
2022/07/23 04:15:59;;;;;;;23.83;6.65;;;;;;;;;;5070983;28;20387;-34
2022/07/23 04:18:24;;;;;;;29.30;5.55;;;;;;;;;;5071764;28;20096;-35
2022/07/23 04:20:53;;;;;;;24.33;6.10;;;;;;;;;;5070625;28;20378;-34
2022/07/23 04:23:18;;;;;;;25.42;5.35;;;;;;;;;;5072123;28;20029;-36
2022/07/23 04:25:43;;;;;;;14.13;4.38;;;;;;;;;;5070374;28;20051;-34
2022/07/23 04:28:09;;;;;;;13.27;4.40;;;;;;;;;;5071582;28;20012;-34
2022/07/23 04:30:34;;;;;;;22.27;7.53;;;;;;;;;;5070352;28;20973;-33
2022/07/23 04:32:59;;;;;;;22.20;5.95;;;;;;;;;;5071866;28;20058;-34
2022/07/23 04:35:25;;;;;;;15.77;4.32;;;;;;;;;;5070150;28;20518;-34
2022/07/23 04:37:50;;;;;;;21.27;5.07;;;;;;;;;;5071864;28;20375;-34
2022/07/23 04:40:15;;;;;;;22.10;5.57;;;;;;;;;;5070384;28;20025;-34
2022/07/23 04:42:41;;;;;;;27.67;6.82;;;;;;;;;;5071409;28;20273;-35
2022/07/23 04:45:06;;;;;;;16.17;4.55;;;;;;;;;;5071542;28;20051;-34
2022/07/23 04:47:31;;;;;;;12.75;4.45;;;;;;;;;;5071581;28;20077;-34
2022/07/23 04:49:57;;;;;;;13.80;4.57;;;;;;;;;;5070368;28;20059;-34
2022/07/23 04:52:22;;;;;;;20.50;5.65;;;;;;;;;;5071628;28;20345;-35
2022/07/23 04:54:48;;;;;;;16.58;4.68;;;;;;;;;;5071429;28;20031;-34
2022/07/23 04:57:13;;;;;;;10.50;4.80;;;;;;;;;;5071588;28;20052;-34
2022/07/23 04:59:38;;;;;;;7.93;4.00;;;;;;;;;;5069800;28;20309;-33
2022/07/23 05:02:04;;;;;;;16.87;5.47;;;;;;;;;;5070660;28;20054;-34
2022/07/23 05:04:29;;;;;;;15.93;4.70;;;;;;;;;;5069725;28;20261;-35
2022/07/23 05:06:54;;;;;;;9.02;3.83;;;;;;;;;;5070552;28;20013;-34
2022/07/23 05:09:19;;;;;;;10.57;4.67;;;;;;;;;;5070931;28;20115;-34
2022/07/23 05:11:45;;;;;;;15.67;3.93;;;;;;;;;;5071352;28;20246;-37
2022/07/23 05:14:12;;;;;;;11.53;3.30;;;;;;;;;;5069578;28;20288;-34
2022/07/23 05:16:37;;;;;;;15.88;4.43;;;;;;;;;;5071518;28;20249;-34
2022/07/23 05:19:02;;;;;;;10.40;3.88;;;;;;;;;;5074059;28;20020;-34
2022/07/23 05:21:28;;;;;;;9.98;4.07;;;;;;;;;;5073858;28;20029;-36
2022/07/23 05:23:53;;;;;;;12.23;4.20;;;;;;;;;;5074144;28;20372;-34
2022/07/23 05:26:18;;;;;;;6.07;3.75;;;;;;;;;;5074034;28;20310;-34
2022/07/23 05:28:44;;;;;;;14.07;4.18;;;;;;;;;;5075326;28;20078;-35
2022/07/23 05:31:09;;;;;;;17.13;4.37;;;;;;;;;;5074931;28;20017;-34
2022/07/23 05:33:34;;;;;;;11.77;4.40;;;;;;;;;;5075426;28;20016;-34
2022/07/23 05:36:03;;;;;;;11.00;4.37;;;;;;;;;;5075485;28;20081;-33
2022/07/23 05:38:28;;;;;;;12.25;3.90;;;;;;;;;;5074697;28;20724;-35
2022/07/23 05:40:54;;;;;;;12.68;3.97;;;;;;;;;;5075208;28;20028;-35
2022/07/23 05:43:19;;;;;;;11.93;4.30;;;;;;;;;;5074834;28;20032;-35
2022/07/23 05:45:44;;;;;;;14.60;4.03;;;;;;;;;;5073974;28;20252;-34
2022/07/23 05:48:09;;;;;;;12.40;4.27;;;;;;;;;;5074815;28;20259;-34
2022/07/23 05:50:35;;;;;;;15.82;5.20;;;;;;;;;;5073649;28;20799;-34
2022/07/23 05:53:00;;;;;;;18.40;4.83;;;;;;;;;;5074862;28;20565;-34
2022/07/23 05:55:28;;;;;;;19.67;5.57;;;;;;;;;;5074894;28;20023;-34
2022/07/23 05:57:54;;;;;;;9.32;4.10;;;;;;;;;;5074869;28;20107;-34
2022/07/23 06:00:19;;;;;;;15.48;4.75;;;;;;;;;;5074488;28;20029;-34
2022/07/23 06:02:44;;;;;;;14.60;4.23;;;;;;;;;;5072928;28;20055;-34
2022/07/23 06:05:09;;;;;;;16.63;4.20;;;;;;;;;;5074411;28;20252;-34
2022/07/23 06:07:35;;;;;;;17.60;4.23;;;;;;;;;;5073055;28;20082;-34
2022/07/23 06:10:00;;;;;;;14.85;4.55;;;;;;;;;;5074094;28;20683;-34
2022/07/23 06:12:26;;;;;;;9.98;4.20;;;;;;;;;;5072802;28;20421;-36
2022/07/23 06:14:52;;;;;;;12.30;3.77;;;;;;;;;;5074011;28;20459;-34
2022/07/23 06:17:17;;;;;;;23.13;4.32;;;;;;;;;;5074264;28;20807;-36
2022/07/23 06:19:42;;;;;;;7.28;3.67;;;;;;;;;;5074420;28;20028;-34
2022/07/23 06:22:08;;;;;;;7.13;3.33;;;;;;;;;;5074044;28;20071;-35
2022/07/23 06:24:33;;;;;;;11.33;3.67;;;;;;;;;;5073971;28;20444;-34
2022/07/23 06:26:58;;;;;;;7.40;3.23;;;;;;;;;;5074295;28;20048;-34
2022/07/23 06:29:24;;;;;;;10.73;3.90;;;;;;;;;;5073098;28;20371;-34
2022/07/23 06:31:49;;;;;;;13.30;4.10;;;;;;;;;;5074161;28;20642;-34
2022/07/23 06:34:14;;;;;;;23.87;4.83;;;;;;;;;;5074172;28;20020;-35
2022/07/23 06:36:39;;;;;;;13.40;4.07;;;;;;;;;;5073751;28;20250;-36
2022/07/23 06:39:05;;;;;;;8.80;4.40;;;;;;;;;;5073904;28;20112;-34
2022/07/23 06:41:30;;;;;;;8.63;4.30;;;;;;;;;;5073862;28;20456;-35
2022/07/23 06:43:55;;;;;;;10.07;3.53;;;;;;;;;;5072651;28;20094;-35
2022/07/23 06:46:21;;;;;;;9.17;3.87;;;;;;;;;;5073666;28;20020;-36
2022/07/23 06:48:46;;;;;;;5.97;3.28;;;;;;;;;;5072618;28;20012;-34
2022/07/23 06:51:12;;;;;;;11.83;3.57;;;;;;;;;;5073434;28;20115;-34
2022/07/23 06:53:37;;;;;;;16.10;4.90;;;;;;;;;;5072078;28;20476;-34
2022/07/23 06:56:02;;;;;;;15.17;4.10;;;;;;;;;;5072014;28;20013;-35
2022/07/23 06:58:28;;;;;;;5.40;3.05;;;;;;;;;;5073267;28;20302;-35
2022/07/23 07:00:53;;;;;;;14.03;4.03;;;;;;;;;;5071978;28;20439;-34
2022/07/23 07:03:18;;;;;;;14.47;3.57;;;;;;;;;;5073393;28;20707;-34
2022/07/23 07:05:44;;;;;;;13.00;3.95;;;;;;;;;;5073581;28;20696;-34
2022/07/23 07:08:09;;;;;;;7.30;3.40;;;;;;;;;;5073029;28;20048;-35
2022/07/23 07:10:34;;;;;;;11.50;4.30;;;;;;;;;;5071808;28;20422;-34
2022/07/23 07:13:00;;;;;;;11.50;3.50;;;;;;;;;;5071660;28;20747;-35
2022/07/23 07:15:25;;;;;;;13.37;3.43;;;;;;;;;;5072896;28;20298;-34
2022/07/23 07:17:50;;;;;;;17.77;3.93;;;;;;;;;;5072913;28;20028;-34
2022/07/23 07:20:16;;;;;;;11.37;3.63;;;;;;;;;;5073497;28;20474;-33
2022/07/23 07:22:41;;;;;;;21.38;3.97;;;;;;;;;;5072563;28;20021;-33
2022/07/23 07:25:07;;;;;;;12.20;4.37;;;;;;;;;;5071786;28;20462;-34
2022/07/23 07:27:32;;;;;;;10.95;3.65;;;;;;;;;;5072657;28;20720;-34
2022/07/23 07:29:57;;;;;;;16.13;3.85;;;;;;;;;;5070981;28;20021;-33
2022/07/23 07:32:23;;;;;;;14.23;3.87;;;;;;;;;;5073072;28;20360;-34
2022/07/23 07:34:48;;;;;;;18.48;4.50;;;;;;;;;;5073150;28;20091;-34
2022/07/23 07:37:13;;;;;;;17.40;3.83;;;;;;;;;;5072333;28;20031;-33
2022/07/23 07:39:39;;;;;;;13.87;3.40;;;;;;;;;;5072838;28;20329;-33
2022/07/23 07:42:04;;;;;;;11.80;3.97;;;;;;;;;;5071184;28;20028;-33
2022/07/23 07:44:29;;;;;;;12.83;3.37;;;;;;;;;;5072160;28;20459;-33
2022/07/23 07:46:55;;;;;;;11.17;3.27;;;;;;;;;;5072667;28;20773;-33
2022/07/23 07:49:20;;;;;;;11.77;3.83;;;;;;;;;;5071143;28;20016;-34
2022/07/23 07:51:45;;;;;;;17.37;4.10;;;;;;;;;;5070501;28;20781;-34
2022/07/23 07:54:14;;;;;;;8.77;3.78;;;;;;;;;;5072455;28;20596;-33
2022/07/23 07:56:39;;;;;;;10.73;3.65;;;;;;;;;;5072271;28;20059;-33
2022/07/23 07:59:04;;;;;;;13.10;3.87;;;;;;;;;;5070870;28;20048;-34
2022/07/23 08:01:30;;;;;;;8.13;3.47;;;;;;;;;;5070071;28;20076;-35
2022/07/23 08:03:55;;;;;;;11.57;3.80;;;;;;;;;;5070532;28;20020;-34
2022/07/23 08:06:20;;;;;;;12.10;3.73;;;;;;;;;;5070964;28;20302;-34
2022/07/23 08:08:45;;;;;;;8.83;3.50;;;;;;;;;;5071755;28;20021;-34
2022/07/23 08:11:11;;;;;;;15.40;4.10;;;;;;;;;;5070348;28;20338;-34
2022/07/23 08:13:36;;;;;;;20.20;3.53;;;;;;;;;;5072136;28;20146;-33
2022/07/23 08:16:01;;;;;;;11.87;3.50;;;;;;;;;;5070357;28;20097;-35
2022/07/23 08:18:27;;;;;;;11.23;3.53;;;;;;;;;;5070687;28;20119;-35
2022/07/23 08:20:52;;;;;;;13.83;3.90;;;;;;;;;;5072292;28;20027;-34
2022/07/23 08:23:19;;;;;;;8.80;4.10;;;;;;;;;;5070095;28;20289;-35
2022/07/23 08:25:44;;;;;;;9.73;3.72;;;;;;;;;;5072017;28;20059;-34
2022/07/23 08:28:10;;;;;;;12.15;3.70;;;;;;;;;;5072073;28;20017;-34
2022/07/23 08:30:36;;;;;;;12.57;3.53;;;;;;;;;;5071551;28;20038;-34
2022/07/23 08:33:07;;;;;;;12.85;3.72;;;;;;;;;;5071430;28;20025;-35
2022/07/23 08:35:36;;;;;;;13.77;3.88;;;;;;;;;;5071546;28;20012;-34
2022/07/23 08:38:03;;;;;;;11.52;3.30;;;;;;;;;;5071626;28;20490;-33
2022/07/23 08:40:30;;;;;;;9.35;3.08;;;;;;;;;;5071264;28;20055;-33
2022/07/23 08:42:55;;;;;;;9.70;3.70;;;;;;;;;;5071031;28;20476;-34
2022/07/23 08:45:21;;;;;;;6.38;2.92;;;;;;;;;;5071081;28;20104;-34
2022/07/23 08:47:48;;;;;;;6.85;2.85;;;;;;;;;;5070131;28;20026;-33
2022/07/23 08:50:14;;;;;;;10.20;3.55;;;;;;;;;;5070260;28;20304;-34
2022/07/23 08:52:39;;;;;;;8.30;3.08;;;;;;;;;;5070717;28;20106;-35
2022/07/23 08:55:05;;;;;;;6.60;3.53;;;;;;;;;;5071604;28;20463;-33
2022/07/23 08:57:30;;;;;;;8.45;3.17;;;;;;;;;;5070057;28;20542;-33
2022/07/23 08:59:56;;;;;;;6.30;2.60;;;;;;;;;;5070278;28;20111;-33
2022/07/23 09:02:21;;;;;;;8.68;2.75;;;;;;;;;;5071501;28;20430;-33
2022/07/23 09:04:48;;;;;;;5.75;2.80;;;;;;;;;;5071444;28;20049;-33
2022/07/23 09:07:13;;;;;;;6.47;3.20;;;;;;;;;;5069700;28;20407;-34
2022/07/23 09:09:38;;;;;;;9.57;3.00;;;;;;;;;;5071273;28;20339;-35
2022/07/23 09:12:08;;;;;;;5.00;3.00;;;;;;;;;;5071070;28;20389;-35
2022/07/23 09:14:46;;;;;;;11.73;3.25;;;;;;;;;;5071132;28;20511;-34
2022/07/23 09:17:21;;;;;;;5.53;2.80;;;;;;;;;;5069726;28;20025;-34
2022/07/23 09:19:46;;;;;;;7.20;3.10;;;;;;;;;;5070666;28;20498;-34
2022/07/23 09:22:21;;;;;;;4.50;2.75;;;;;;;;;;5069673;28;20025;-34
2022/07/23 09:25:05;;;;;;;8.10;2.85;;;;;;;;;;5070447;28;20044;-35
2022/07/23 09:27:49;;;;;;;10.55;2.78;;;;;;;;;;5069252;28;20055;-34
2022/07/23 09:30:15;;;;;;;3.85;2.40;;;;;;;;;;5069079;28;20021;-34
2022/07/23 09:32:40;;;;;;;5.53;2.83;;;;;;;;;;5070768;28;20107;-35
2022/07/23 09:35:06;;;;;;;6.53;2.72;;;;;;;;;;5070444;28;20394;-34
2022/07/23 09:37:31;;;;;;;15.85;3.28;;;;;;;;;;5069224;28;20459;-34
2022/07/23 09:40:04;;;;;;;8.10;3.00;;;;;;;;;;5070874;28;20039;-33
2022/07/23 09:42:29;;;;;;;9.52;3.00;;;;;;;;;;5070696;28;20402;-36
2022/07/23 09:44:55;;;;;;;13.13;3.73;;;;;;;;;;5069291;28;20025;-33
2022/07/23 09:47:22;;;;;;;12.27;3.70;;;;;;;;;;5070840;28;20315;-33
2022/07/23 09:50:08;;;;;;;8.23;3.08;;;;;;;;;;5070614;28;20028;-34
2022/07/23 09:52:43;;;;;;;7.80;3.15;;;;;;;;;;5070547;28;20498;-35
2022/07/23 09:55:08;;;;;;;7.50;2.88;;;;;;;;;;5069827;28;20557;-34
2022/07/23 09:57:34;;;;;;;6.32;3.00;;;;;;;;;;5070489;28;20020;-35
2022/07/23 10:00:06;;;;;;;5.40;2.67;;;;;;;;;;5070828;28;20352;-34
2022/07/23 10:02:32;;;;;;;4.95;3.00;;;;;;;;;;5070358;28;20060;-34
2022/07/23 10:04:57;;;;;;;8.98;2.63;;;;;;;;;;5071297;28;20032;-34
2022/07/23 10:07:26;;;;;;;7.75;2.83;;;;;;;;;;5072556;28;20375;-34
2022/07/23 10:09:52;;;;;;;6.63;2.58;;;;;;;;;;5072855;28;20008;-35
2022/07/23 10:14:59;;;;;;;6.03;2.53;;;;;;;;;;5073802;28;20055;-35
2022/07/23 10:17:25;;;;;;;7.55;2.97;;;;;;;;;;5073840;28;20114;-33
2022/07/23 10:19:50;;;;;;;6.35;2.72;;;;;;;;;;5072956;28;20055;-36
2022/07/23 10:22:23;;;;;;;5.18;2.75;;;;;;;;;;5072692;28;20473;-34
2022/07/23 10:24:58;;;;;;;12.65;2.70;;;;;;;;;;5074405;28;20105;-35
2022/07/23 10:27:42;;;;;;;11.63;3.00;;;;;;;;;;5074016;28;20028;-34
2022/07/23 10:30:07;;;;;;;6.65;3.00;;;;;;;;;;5073496;28;20027;-38
2022/07/23 10:32:35;;;;;;;5.35;2.35;;;;;;;;;;5073781;28;20020;-35
2022/07/23 10:35:07;;;;;;;3.40;2.70;;;;;;;;;;5072095;28;20040;-33
2022/07/23 10:37:36;;;;;;;7.97;2.95;;;;;;;;;;5072299;28;20021;-33
2022/07/23 10:40:08;;;;;;;6.32;2.70;;;;;;;;;;5073348;28;20461;-36
2022/07/23 10:42:34;;;;;;;7.22;2.65;;;;;;;;;;5072342;28;20032;-35
2022/07/23 10:45:00;;;;;;;8.65;2.75;;;;;;;;;;5073356;28;20020;-33
2022/07/23 10:47:41;;;;;;;5.87;2.60;;;;;;;;;;5073363;28;20398;-38
2022/07/23 10:50:34;;;;;;;17.50;3.20;;;;;;;;;;5072099;28;20107;-33
2022/07/23 10:53:09;;;;;;;11.48;2.78;;;;;;;;;;5071564;28;20024;-33
2022/07/23 10:55:34;;;;;;;11.93;3.10;;;;;;;;;;5072846;28;20027;-33
2022/07/23 10:58:00;;;;;;;10.80;2.87;;;;;;;;;;5071955;28;20024;-34
2022/07/23 11:00:29;;;;;;;10.13;3.08;;;;;;;;;;5073207;28;20356;-33
2022/07/23 11:02:56;;;;;;;10.90;2.75;;;;;;;;;;5072817;28;20428;-33
2022/07/23 11:05:23;;;;;;;11.85;3.30;;;;;;;;;;5072507;28;20386;-35
2022/07/23 11:08:03;;;;;;;5.50;2.63;;;;;;;;;;5073494;28;20020;-33
2022/07/23 11:10:42;;;;;;;8.88;2.80;;;;;;;;;;5071557;28;20021;-34
2022/07/23 11:13:22;;;;;;;9.70;3.13;;;;;;;;;;5072977;28;20540;-33
2022/07/23 11:16:06;;;;;;;6.30;3.03;;;;;;;;;;5072477;28;20533;-33
2022/07/23 11:18:43;;;;;;;6.95;2.90;;;;;;;;;;5072022;28;20429;-33
2022/07/23 11:21:21;;;;;;;4.65;3.33;;;;;;;;;;5071820;28;20024;-34
2022/07/23 11:24:00;;;;;;;13.23;3.17;;;;;;;;;;5073227;28;20051;-33
2022/07/23 11:26:43;;;;;;;8.25;2.33;;;;;;;;;;5072934;28;20055;-33
2022/07/23 11:29:27;;;;;;;11.98;3.22;;;;;;;;;;5072545;28;20379;-34
2022/07/23 11:31:53;;;;;;;13.23;3.78;;;;;;;;;;5071444;28;20493;-33
2022/07/23 11:34:37;;;;;;;3.25;2.67;;;;;;;;;;5072431;28;20479;-34
2022/07/23 11:37:03;;;;;;;8.48;3.10;;;;;;;;;;5072576;28;20024;-33
2022/07/23 11:39:30;;;;;;;4.60;2.70;;;;;;;;;;5072190;28;20027;-36
2022/07/23 11:41:56;;;;;;;9.88;3.47;;;;;;;;;;5071200;28;20029;-33
2022/07/23 11:44:28;;;;;;;5.70;2.47;;;;;;;;;;5072121;28;20483;-34
2022/07/23 11:47:00;;;;;;;15.70;3.42;;;;;;;;;;5072554;28;20035;-36
2022/07/23 11:49:26;;;;;;;8.18;3.03;;;;;;;;;;5072368;28;20040;-34
2022/07/23 11:52:10;;;;;;;17.00;3.22;;;;;;;;;;5072008;28;20017;-34
2022/07/23 11:54:46;;;;;;;5.88;2.47;;;;;;;;;;5070785;28;20030;-33
2022/07/23 11:57:12;;;;;;;7.50;2.45;;;;;;;;;;5070748;28;20379;-33
2022/07/23 11:59:38;;;;;;;3.25;2.35;;;;;;;;;;5070179;28;20059;-33
2022/07/23 12:02:04;;;;;;;6.95;2.88;;;;;;;;;;5071324;28;20052;-34
2022/07/23 12:04:49;;;;;;;7.85;2.90;;;;;;;;;;5072113;28;20024;-33
2022/07/23 12:07:24;;;;;;;8.10;3.40;;;;;;;;;;5070718;28;20028;-33
2022/07/23 12:09:49;;;;;;;10.52;3.30;;;;;;;;;;5070448;28;20021;-34
2022/07/23 12:12:14;;;;;;;6.50;2.77;;;;;;;;;;5070382;28;20078;-33
2022/07/23 12:14:58;;;;;;;6.00;2.80;;;;;;;;;;5070373;28;20376;-34
2022/07/23 12:17:30;;;;;;;11.00;2.90;;;;;;;;;;5071729;28;20257;-33
2022/07/23 12:19:57;;;;;;;10.10;3.30;;;;;;;;;;5070054;28;20024;-33
2022/07/23 12:22:23;;;;;;;9.43;2.97;;;;;;;;;;5071386;28;20036;-34
2022/07/23 12:24:52;;;;;;;10.00;3.03;;;;;;;;;;5071386;28;20360;-34
2022/07/23 12:27:19;;;;;;;5.00;2.75;;;;;;;;;;5070931;28;20036;-34
2022/07/23 12:29:45;;;;;;;5.72;2.38;;;;;;;;;;5069823;28;20017;-35
2022/07/23 12:32:21;;;;;;;10.53;2.40;;;;;;;;;;5070141;28;20533;-33
2022/07/23 12:34:48;;;;;;;9.82;3.00;;;;;;;;;;5071383;28;20679;-33
2022/07/23 12:37:35;;;;;;;5.63;2.60;;;;;;;;;;5070961;28;20356;-34
2022/07/23 12:40:19;;;;;;;5.32;2.50;;;;;;;;;;5071444;28;20028;-34
2022/07/23 12:42:46;;;;;;;7.25;2.83;;;;;;;;;;5071048;28;20034;-34
2022/07/23 12:45:11;;;;;;;9.52;2.58;;;;;;;;;;5071051;28;20094;-33
2022/07/23 12:47:55;;;;;;;5.45;2.55;;;;;;;;;;5070993;28;20013;-33
2022/07/23 12:50:37;;;;;;;5.88;2.80;;;;;;;;;;5070983;28;20017;-33
2022/07/23 12:53:25;;;;;;;9.45;3.47;;;;;;;;;;5071120;28;20021;-33
2022/07/23 12:55:57;;;;;;;9.70;3.57;;;;;;;;;;5058696;28;20036;-33
2022/07/23 12:58:22;;;;;;;8.13;2.92;;;;;;;;;;5069505;28;20012;-34
2022/07/23 13:00:50;;;;;;;6.32;2.58;;;;;;;;;;5069791;28;20066;-33
2022/07/23 13:03:25;;;;;;;7.63;2.85;;;;;;;;;;5071107;28;20055;-33
2022/07/23 13:05:50;;;;;;;8.38;3.38;;;;;;;;;;5071279;28;20021;-34
2022/07/23 13:08:15;;;;;;;8.43;2.77;;;;;;;;;;5070717;28;20450;-33
2022/07/23 13:10:40;;;;;;;8.90;2.97;;;;;;;;;;5069678;28;20024;-33
2022/07/23 13:13:12;;;;;;;9.40;3.13;;;;;;;;;;5071385;28;20019;-34
2022/07/23 13:15:38;;;;;;;12.43;3.15;;;;;;;;;;5070823;28;20028;-33
2022/07/23 13:18:03;;;;;;;5.95;2.53;;;;;;;;;;5070804;28;20471;-33
2022/07/23 13:20:28;;;;;;;6.40;3.10;;;;;;;;;;5071147;28;20661;-37
2022/07/23 13:22:53;;;;;;;3.57;2.67;;;;;;;;;;5071131;28;20798;-34
2022/07/23 13:25:19;;;;;;;9.87;2.90;;;;;;;;;;5069276;28;20759;-34
2022/07/23 13:27:44;;;;;;;6.43;2.87;;;;;;;;;;5071015;28;20103;-34
2022/07/23 13:30:10;;;;;;;7.60;2.83;;;;;;;;;;5070707;28;20100;-34
2022/07/23 13:32:36;;;;;;;7.85;2.92;;;;;;;;;;5070942;28;20237;-34
2022/07/23 13:35:01;;;;;;;8.02;2.60;;;;;;;;;;5069569;28;20020;-34
2022/07/23 13:37:27;;;;;;;7.03;2.50;;;;;;;;;;5070888;28;20032;-35
2022/07/23 13:39:52;;;;;;;4.33;2.60;;;;;;;;;;5073011;28;20025;-34
2022/07/23 13:42:17;;;;;;;5.40;2.83;;;;;;;;;;5074716;28;20297;-34
2022/07/23 13:44:42;;;;;;;5.73;2.77;;;;;;;;;;5073619;28;20351;-33
2022/07/23 13:47:08;;;;;;;7.25;2.80;;;;;;;;;;5074638;28;20533;-35
2022/07/23 13:49:33;;;;;;;8.80;2.80;;;;;;;;;;5074818;28;20351;-34
2022/07/23 13:51:58;;;;;;;14.90;3.03;;;;;;;;;;5074634;28;20017;-33
2022/07/23 13:54:24;;;;;;;7.97;2.80;;;;;;;;;;5074423;28;20017;-33
2022/07/23 13:56:49;;;;;;;4.33;2.80;;;;;;;;;;5072912;28;20493;-35
2022/07/23 13:59:14;;;;;;;9.23;3.33;;;;;;;;;;5074564;28;20256;-34
2022/07/23 14:01:40;;;;;;;9.30;3.13;;;;;;;;;;5072626;28;20055;-33
2022/07/23 14:04:05;;;;;;;10.50;3.30;;;;;;;;;;5074564;28;20052;-33
2022/07/23 14:06:30;;;;;;;10.75;3.17;;;;;;;;;;5073872;28;20699;-37
2022/07/23 14:08:56;;;;;;;11.33;2.80;;;;;;;;;;5073869;28;20031;-34
2022/07/23 14:11:21;;;;;;;5.13;2.80;;;;;;;;;;5073412;28;20023;-33
2022/07/23 14:13:46;;;;;;;6.93;2.90;;;;;;;;;;5074044;28;20059;-33
2022/07/23 14:16:12;;;;;;;9.73;2.90;;;;;;;;;;5073059;28;20272;-33
2022/07/23 14:18:37;;;;;;;10.90;2.63;;;;;;;;;;5072535;28;20115;-35
2022/07/23 14:21:02;;;;;;;8.50;2.80;;;;;;;;;;5072378;28;20686;-33
2022/07/23 14:23:28;;;;;;;5.25;2.28;;;;;;;;;;5073384;28;20293;-34
2022/07/23 14:25:53;;;;;;;4.82;2.70;;;;;;;;;;5073559;28;20077;-33
2022/07/23 14:28:19;;;;;;;7.33;2.70;;;;;;;;;;5073602;28;20032;-34
2022/07/23 14:30:44;;;;;;;5.35;2.65;;;;;;;;;;5073633;28;20012;-33
2022/07/23 14:33:09;;;;;;;5.57;2.83;;;;;;;;;;5073794;28;20024;-34
2022/07/23 14:35:34;;;;;;;8.20;2.70;;;;;;;;;;5072698;28;20490;-34
2022/07/23 14:38:00;;;;;;;3.93;2.60;;;;;;;;;;5072193;28;20769;-34